Time;durP1;ratioP1;P1;durP2;ratioP2;P2;SDS_P1;SDS_P2;PMS_P1;PMS_P2;Temp;Humidity;BMP_temperature;BMP_pressure;BME280_temperature;BME280_humidity;BME280_pressure;Samples;Min_cycle;Max_cycle;Signal;HPM_P1;HPM_P2
2022/11/16 00:01:05;;;;;;;3.38;1.02;;;;;;;;;;5035486;28;20139;-72
2022/11/16 00:03:32;;;;;;;2.03;0.90;;;;;;;;;;5036312;28;20541;-73
2022/11/16 00:06:00;;;;;;;3.85;1.10;;;;;;;;;;5033248;28;20059;-73
2022/11/16 00:08:28;;;;;;;4.22;1.00;;;;;;;;;;5030681;28;20045;-69
2022/11/16 00:10:54;;;;;;;3.95;1.00;;;;;;;;;;5032727;28;20052;-71
2022/11/16 00:13:20;;;;;;;1.55;0.82;;;;;;;;;;5035648;28;20417;-70
2022/11/16 00:15:54;;;;;;;4.95;1.10;;;;;;;;;;5034218;28;20045;-70
2022/11/16 00:18:21;;;;;;;3.65;1.30;;;;;;;;;;5032167;28;20060;-72
2022/11/16 00:20:47;;;;;;;5.45;1.00;;;;;;;;;;5036831;28;20041;-71
2022/11/16 00:23:14;;;;;;;5.00;0.98;;;;;;;;;;5035952;28;20140;-71
2022/11/16 00:25:39;;;;;;;2.05;0.90;;;;;;;;;;5033381;28;20052;-72
2022/11/16 00:28:05;;;;;;;6.50;1.05;;;;;;;;;;5036419;28;20052;-71
2022/11/16 00:30:31;;;;;;;2.22;0.88;;;;;;;;;;5038233;28;20430;-70
2022/11/16 00:33:01;;;;;;;2.17;0.90;;;;;;;;;;5036763;28;20048;-72
2022/11/16 00:35:27;;;;;;;1.55;0.80;;;;;;;;;;5038408;28;20486;-70
2022/11/16 00:37:53;;;;;;;3.70;0.70;;;;;;;;;;5032386;28;20096;-72
2022/11/16 00:40:19;;;;;;;1.95;0.88;;;;;;;;;;5038994;28;20044;-70
2022/11/16 00:42:45;;;;;;;2.72;0.98;;;;;;;;;;5040028;28;20080;-71
2022/11/16 00:45:11;;;;;;;3.15;0.90;;;;;;;;;;5033671;28;20431;-71
2022/11/16 00:47:37;;;;;;;3.70;0.80;;;;;;;;;;5035731;28;20473;-73
2022/11/16 00:50:04;;;;;;;1.33;0.80;;;;;;;;;;5034696;28;20049;-72
2022/11/16 00:52:30;;;;;;;2.05;0.80;;;;;;;;;;5036462;28;20050;-70
2022/11/16 00:54:56;;;;;;;2.42;0.85;;;;;;;;;;5035151;28;20033;-70
2022/11/16 00:57:22;;;;;;;2.28;0.85;;;;;;;;;;5036070;28;20425;-69
2022/11/16 00:59:48;;;;;;;1.50;0.75;;;;;;;;;;5034496;28;20365;-71
2022/11/16 01:02:14;;;;;;;2.20;0.85;;;;;;;;;;5034617;28;20084;-69
2022/11/16 01:04:40;;;;;;;2.00;0.60;;;;;;;;;;5038774;28;20132;-75
2022/11/16 01:07:06;;;;;;;1.20;0.52;;;;;;;;;;5038561;28;20079;-70
2022/11/16 01:09:32;;;;;;;2.78;0.80;;;;;;;;;;5036648;28;20197;-72
2022/11/16 01:12:11;;;;;;;1.92;0.50;;;;;;;;;;5039652;28;20415;-71
2022/11/16 01:14:45;;;;;;;1.80;0.63;;;;;;;;;;5039036;28;20105;-69
2022/11/16 01:17:12;;;;;;;0.98;0.60;;;;;;;;;;5038748;28;20955;-70
2022/11/16 01:19:38;;;;;;;1.88;0.68;;;;;;;;;;4996518;28;20060;-70
2022/11/16 01:22:04;;;;;;;1.52;0.60;;;;;;;;;;4997297;28;20495;-69
2022/11/16 01:24:31;;;;;;;2.75;0.73;;;;;;;;;;4999008;28;20054;-70
2022/11/16 01:26:57;;;;;;;1.35;0.80;;;;;;;;;;4998261;28;20042;-70
2022/11/16 01:29:24;;;;;;;2.22;0.43;;;;;;;;;;4990909;28;20400;-71
2022/11/16 01:31:50;;;;;;;1.30;0.70;;;;;;;;;;4993639;28;20065;-71
2022/11/16 01:34:16;;;;;;;1.67;0.68;;;;;;;;;;5000552;28;20822;-70
2022/11/16 01:36:42;;;;;;;1.30;0.50;;;;;;;;;;4994028;28;20053;-71
2022/11/16 01:39:11;;;;;;;1.00;0.60;;;;;;;;;;4993634;28;20092;-70
2022/11/16 01:41:38;;;;;;;2.13;0.70;;;;;;;;;;4993875;28;20081;-68
2022/11/16 01:44:25;;;;;;;1.25;0.60;;;;;;;;;;4996734;28;20073;-74
2022/11/16 01:46:51;;;;;;;0.90;0.50;;;;;;;;;;4995534;28;20541;-70
2022/11/16 01:49:21;;;;;;;2.72;0.55;;;;;;;;;;4994045;28;20053;-71
2022/11/16 01:51:52;;;;;;;1.02;0.70;;;;;;;;;;4995020;28;20534;-69
2022/11/16 01:54:18;;;;;;;1.00;0.65;;;;;;;;;;4996777;28;20105;-70
2022/11/16 01:56:47;;;;;;;5.72;1.10;;;;;;;;;;4993770;28;20084;-70
2022/11/16 01:59:14;;;;;;;1.48;0.80;;;;;;;;;;4994724;28;20123;-69
2022/11/16 02:01:40;;;;;;;1.25;0.43;;;;;;;;;;4995121;28;20045;-68
2022/11/16 02:04:09;;;;;;;1.33;0.63;;;;;;;;;;5001340;28;21079;-71
2022/11/16 02:06:41;;;;;;;1.85;0.65;;;;;;;;;;4999357;28;20053;-70
2022/11/16 02:12:34;;;;;;;2.40;0.60;;;;;;;;;;4998636;28;20053;-69
2022/11/16 02:15:15;;;;;;;0.88;0.38;;;;;;;;;;5002764;28;20050;-69
2022/11/16 02:17:47;;;;;;;1.85;0.70;;;;;;;;;;5005519;28;20053;-68
2022/11/16 02:20:32;;;;;;;2.50;0.75;;;;;;;;;;5038554;28;20083;-70
2022/11/16 02:23:38;;;;;;;1.40;0.57;;;;;;;;;;5037160;28;20645;-70
2022/11/16 02:26:12;;;;;;;3.30;0.43;;;;;;;;;;5038996;28;20129;-69
2022/11/16 02:28:45;;;;;;;0.60;0.30;;;;;;;;;;5036120;28;20057;-68
2022/11/16 02:31:22;;;;;;;0.63;0.40;;;;;;;;;;5038694;28;20895;-69
2022/11/16 02:33:51;;;;;;;0.38;0.25;;;;;;;;;;5038509;28;20049;-69
2022/11/16 02:36:21;;;;;;;0.68;0.20;;;;;;;;;;5036591;28;20049;-69
2022/11/16 02:38:53;;;;;;;0.32;0.20;;;;;;;;;;5035636;28;20137;-69
2022/11/16 02:41:22;;;;;;;1.55;0.30;;;;;;;;;;5034952;28;20359;-70
2022/11/16 02:44:01;;;;;;;0.20;0.20;;;;;;;;;;5036698;28;20042;-70
2022/11/16 02:46:34;;;;;;;0.10;0.10;;;;;;;;;;5019350;28;20522;-67
2022/11/16 02:49:04;;;;;;;0.30;0.30;;;;;;;;;;5033780;28;20457;-69
2022/11/16 02:51:32;;;;;;;0.22;0.20;;;;;;;;;;5039394;28;20049;-67
2022/11/16 02:54:10;;;;;;;0.85;0.30;;;;;;;;;;5037018;28;20057;-68
2022/11/16 02:56:54;;;;;;;0.47;0.32;;;;;;;;;;5037929;28;20071;-69
2022/11/16 02:59:21;;;;;;;3.80;0.43;;;;;;;;;;5039227;28;20126;-71
2022/11/16 03:01:55;;;;;;;0.43;0.30;;;;;;;;;;5037317;28;20122;-72
2022/11/16 03:04:31;;;;;;;0.30;0.30;;;;;;;;;;5041436;28;20057;-70
2022/11/16 03:07:00;;;;;;;0.50;0.40;;;;;;;;;;5016353;28;20046;-70
2022/11/16 03:09:30;;;;;;;0.73;0.32;;;;;;;;;;5035190;28;20057;-70
2022/11/16 03:11:59;;;;;;;0.35;0.35;;;;;;;;;;5038810;28;20045;-68
2022/11/16 03:14:35;;;;;;;1.67;0.47;;;;;;;;;;5039093;28;20072;-71
2022/11/16 03:17:05;;;;;;;0.60;0.28;;;;;;;;;;5037292;28;20054;-69
2022/11/16 03:19:36;;;;;;;0.52;0.20;;;;;;;;;;5040662;28;20068;-68
2022/11/16 03:22:27;;;;;;;0.57;0.20;;;;;;;;;;5036006;28;20048;-70
2022/11/16 03:24:53;;;;;;;0.43;0.20;;;;;;;;;;5039320;28;20326;-70
2022/11/16 03:27:33;;;;;;;1.85;0.45;;;;;;;;;;5038753;28;20049;-68
2022/11/16 03:30:09;;;;;;;1.55;0.43;;;;;;;;;;5037935;28;20546;-71
2022/11/16 03:32:44;;;;;;;0.75;0.73;;;;;;;;;;5038604;28;20056;-68
2022/11/16 03:35:18;;;;;;;0.77;0.47;;;;;;;;;;5039829;28;20056;-69
2022/11/16 03:37:46;;;;;;;0.32;0.30;;;;;;;;;;5037420;28;20679;-70
2022/11/16 03:40:14;;;;;;;0.95;0.50;;;;;;;;;;5042115;28;20049;-69
2022/11/16 03:42:41;;;;;;;0.52;0.20;;;;;;;;;;5019902;28;20512;-70
2022/11/16 03:45:09;;;;;;;0.45;0.15;;;;;;;;;;5040904;28;20053;-69
2022/11/16 03:47:34;;;;;;;0.20;0.20;;;;;;;;;;5039993;28;20131;-70
2022/11/16 03:50:00;;;;;;;0.75;0.35;;;;;;;;;;5037898;28;20085;-69
2022/11/16 03:52:26;;;;;;;0.38;0.30;;;;;;;;;;5034060;28;20517;-68
2022/11/16 03:54:52;;;;;;;0.30;0.30;;;;;;;;;;5039368;28;20056;-69
2022/11/16 03:57:18;;;;;;;1.20;0.50;;;;;;;;;;5031926;28;20063;-69
2022/11/16 03:59:44;;;;;;;1.55;0.40;;;;;;;;;;5037653;28;20064;-70
2022/11/16 04:02:11;;;;;;;3.80;0.35;;;;;;;;;;5031081;28;20045;-71
2022/11/16 04:29:18;;;;;;;0.30;0.30;;;;;;;;;;5038319;28;20083;-69
2022/11/16 04:40:00;;;;;;;4.45;0.50;;;;;;;;;;5041687;28;20540;-69
2022/11/16 04:42:26;;;;;;;0.60;0.50;;;;;;;;;;5036325;28;20676;-70
2022/11/16 04:47:36;;;;;;;0.73;0.60;;;;;;;;;;5038614;28;20721;-71
2022/11/16 04:50:02;;;;;;;1.40;0.50;;;;;;;;;;5027230;28;20045;-68
2022/11/16 04:52:28;;;;;;;0.30;0.30;;;;;;;;;;5033875;28;20056;-70
2022/11/16 04:54:54;;;;;;;1.42;0.40;;;;;;;;;;5034109;28;20478;-69
2022/11/16 04:57:20;;;;;;;0.35;0.30;;;;;;;;;;5035091;28;20075;-68
2022/11/16 04:59:46;;;;;;;1.08;0.40;;;;;;;;;;5031018;28;20515;-69
2022/11/16 05:02:14;;;;;;;0.43;0.40;;;;;;;;;;5034226;28;20178;-70
2022/11/16 05:04:42;;;;;;;0.30;0.30;;;;;;;;;;5029407;28;20048;-70
2022/11/16 05:07:10;;;;;;;0.65;0.40;;;;;;;;;;5038461;28;20056;-68
2022/11/16 05:09:44;;;;;;;1.73;0.40;;;;;;;;;;5027487;28;20506;-70
2022/11/16 05:12:21;;;;;;;0.85;0.40;;;;;;;;;;5033920;28;20077;-70
2022/11/16 05:14:47;;;;;;;0.85;0.35;;;;;;;;;;5038073;28;20044;-69
2022/11/16 05:17:14;;;;;;;1.58;0.52;;;;;;;;;;5038924;28;20056;-70
2022/11/16 05:22:25;;;;;;;2.17;0.30;;;;;;;;;;5034891;28;20044;-70
2022/11/16 05:24:51;;;;;;;1.58;0.38;;;;;;;;;;5033003;28;20049;-68
2022/11/16 05:27:19;;;;;;;2.42;0.47;;;;;;;;;;5036540;28;20399;-68
2022/11/16 05:29:45;;;;;;;0.77;0.50;;;;;;;;;;5037126;28;20101;-69
2022/11/16 05:32:12;;;;;;;0.98;0.35;;;;;;;;;;5033451;28;20500;-70
2022/11/16 05:34:38;;;;;;;0.20;0.20;;;;;;;;;;5040516;28;20136;-70
2022/11/16 05:37:05;;;;;;;1.98;0.45;;;;;;;;;;5032027;28;20732;-70
2022/11/16 05:39:30;;;;;;;0.55;0.40;;;;;;;;;;5029101;28;20052;-69
2022/11/16 05:41:56;;;;;;;0.63;0.30;;;;;;;;;;5036230;28;20402;-70
2022/11/16 05:44:23;;;;;;;0.50;0.40;;;;;;;;;;5037937;28;20068;-70
2022/11/16 05:46:49;;;;;;;0.40;0.32;;;;;;;;;;5036580;28;20529;-71
2022/11/16 05:49:15;;;;;;;2.08;0.45;;;;;;;;;;5032715;28;20175;-72
2022/11/16 05:51:43;;;;;;;2.53;0.40;;;;;;;;;;5038459;28;20111;-70
2022/11/16 05:54:17;;;;;;;2.05;0.38;;;;;;;;;;5019234;28;20048;-68
2022/11/16 05:56:44;;;;;;;2.13;0.40;;;;;;;;;;5037436;28;20056;-68
2022/11/16 05:59:15;;;;;;;4.75;0.50;;;;;;;;;;5031159;28;20048;-69
2022/11/16 06:01:41;;;;;;;2.72;0.40;;;;;;;;;;5037866;28;20041;-68
2022/11/16 06:04:08;;;;;;;1.45;0.70;;;;;;;;;;5044462;28;20123;-68
2022/11/16 06:06:34;;;;;;;0.77;0.50;;;;;;;;;;5040212;28;20509;-69
2022/11/16 06:09:00;;;;;;;2.25;0.60;;;;;;;;;;5028981;28;20049;-68
2022/11/16 06:11:26;;;;;;;3.80;0.60;;;;;;;;;;5035365;28;20041;-70
2022/11/16 06:13:52;;;;;;;2.70;0.60;;;;;;;;;;5039541;28;20048;-69
2022/11/16 06:16:18;;;;;;;0.50;0.50;;;;;;;;;;5039605;28;20106;-70
2022/11/16 06:18:46;;;;;;;1.13;0.40;;;;;;;;;;5039024;28;20053;-69
2022/11/16 06:21:14;;;;;;;2.15;0.40;;;;;;;;;;5033235;28;20083;-73
2022/11/16 06:23:40;;;;;;;2.95;0.38;;;;;;;;;;5042328;28;20488;-71
2022/11/16 06:26:06;;;;;;;0.85;0.50;;;;;;;;;;5033290;28;20603;-70
2022/11/16 06:28:32;;;;;;;2.45;0.85;;;;;;;;;;5027901;28;20095;-71
2022/11/16 06:30:58;;;;;;;1.92;0.55;;;;;;;;;;5032751;28;20430;-71
2022/11/16 06:33:25;;;;;;;1.75;0.60;;;;;;;;;;5037739;28;20049;-70
2022/11/16 06:35:51;;;;;;;2.25;0.60;;;;;;;;;;5030761;28;20079;-72
2022/11/16 06:38:17;;;;;;;3.10;0.60;;;;;;;;;;5031000;28;20724;-70
2022/11/16 06:40:45;;;;;;;1.73;0.40;;;;;;;;;;5030696;28;20061;-70
2022/11/16 06:43:11;;;;;;;1.13;0.50;;;;;;;;;;5031498;28;20091;-69
2022/11/16 06:45:37;;;;;;;0.70;0.40;;;;;;;;;;5034036;28;20088;-69
2022/11/16 06:48:03;;;;;;;2.67;0.70;;;;;;;;;;5034816;28;20175;-70
2022/11/16 06:50:29;;;;;;;1.40;0.50;;;;;;;;;;5042618;28;20506;-71
2022/11/16 06:52:55;;;;;;;0.60;0.55;;;;;;;;;;5038515;28;20075;-71
2022/11/16 06:55:21;;;;;;;1.08;0.45;;;;;;;;;;5041209;28;20045;-70
2022/11/16 06:57:46;;;;;;;1.60;0.60;;;;;;;;;;5035719;28;20471;-73
2022/11/16 07:00:13;;;;;;;3.05;0.43;;;;;;;;;;5034045;28;20578;-72
2022/11/16 07:02:39;;;;;;;2.15;0.75;;;;;;;;;;5037509;28;20684;-70
2022/11/16 07:05:06;;;;;;;2.00;0.55;;;;;;;;;;5035104;28;20088;-71
2022/11/16 07:07:32;;;;;;;4.22;0.57;;;;;;;;;;5038487;28;20053;-68
2022/11/16 07:09:58;;;;;;;3.20;0.63;;;;;;;;;;5030533;28;20059;-69
2022/11/16 07:12:24;;;;;;;3.72;0.50;;;;;;;;;;5033618;28;20053;-70
2022/11/16 07:14:50;;;;;;;2.28;0.50;;;;;;;;;;5032482;28;20179;-69
2022/11/16 07:17:16;;;;;;;5.38;0.63;;;;;;;;;;5035144;28;20148;-70
2022/11/16 07:19:42;;;;;;;1.30;0.50;;;;;;;;;;5028395;28;20060;-70
2022/11/16 07:22:08;;;;;;;1.42;0.63;;;;;;;;;;5029466;28;20480;-68
2022/11/16 07:24:34;;;;;;;4.57;0.90;;;;;;;;;;5032002;28;20045;-68
2022/11/16 07:27:00;;;;;;;1.02;0.60;;;;;;;;;;5034385;28;21147;-70
2022/11/16 07:29:26;;;;;;;3.08;0.60;;;;;;;;;;5035058;28;20048;-68
2022/11/16 07:31:52;;;;;;;2.50;0.40;;;;;;;;;;5035090;28;20741;-71
2022/11/16 07:34:18;;;;;;;1.00;0.50;;;;;;;;;;5040203;28;20057;-69
2022/11/16 07:36:43;;;;;;;3.30;0.63;;;;;;;;;;5036715;28;20060;-70
2022/11/16 07:39:09;;;;;;;4.53;0.52;;;;;;;;;;5027473;28;20072;-70
2022/11/16 07:41:41;;;;;;;4.65;1.02;;;;;;;;;;5033449;28;21007;-69
2022/11/16 07:44:07;;;;;;;1.75;0.47;;;;;;;;;;5037309;28;20053;-66
2022/11/16 07:46:33;;;;;;;2.83;0.60;;;;;;;;;;5039094;28;20044;-69
2022/11/16 07:48:59;;;;;;;0.95;0.50;;;;;;;;;;5030972;28;20041;-69
2022/11/16 07:51:25;;;;;;;3.35;0.40;;;;;;;;;;5036987;28;20102;-69
2022/11/16 07:53:54;;;;;;;2.22;0.50;;;;;;;;;;5040202;28;20045;-70
2022/11/16 07:56:20;;;;;;;0.80;0.47;;;;;;;;;;5038180;28;20187;-71
2022/11/16 07:58:46;;;;;;;8.10;0.80;;;;;;;;;;5030175;28;20121;-69
2022/11/16 08:01:15;;;;;;;2.45;0.60;;;;;;;;;;5019944;28;20576;-68
2022/11/16 08:03:42;;;;;;;7.88;0.82;;;;;;;;;;5040428;28;20056;-70
2022/11/16 08:06:18;;;;;;;1.63;0.50;;;;;;;;;;5017593;28;20499;-68
2022/11/16 08:08:44;;;;;;;7.95;0.75;;;;;;;;;;5034209;28;20063;-68
2022/11/16 08:11:11;;;;;;;4.85;0.80;;;;;;;;;;5016983;28;20057;-67
2022/11/16 08:13:39;;;;;;;1.67;0.65;;;;;;;;;;5035056;28;20347;-67
2022/11/16 08:16:09;;;;;;;5.25;0.70;;;;;;;;;;5037987;28;20049;-73
2022/11/16 08:18:37;;;;;;;1.60;0.73;;;;;;;;;;5030464;28;20060;-71
2022/11/16 08:21:04;;;;;;;1.75;0.63;;;;;;;;;;5037227;28;20445;-70
2022/11/16 08:23:31;;;;;;;2.17;0.95;;;;;;;;;;5033643;28;20520;-70
2022/11/16 08:26:08;;;;;;;2.13;0.85;;;;;;;;;;5034664;28;20048;-69
2022/11/16 08:28:36;;;;;;;3.88;1.00;;;;;;;;;;5009963;28;20571;-68
2022/11/16 08:31:12;;;;;;;7.22;1.00;;;;;;;;;;5039901;28;20094;-72
2022/11/16 08:33:38;;;;;;;6.68;1.00;;;;;;;;;;5038552;28;20044;-72
2022/11/16 08:36:09;;;;;;;2.47;0.70;;;;;;;;;;5034188;28;20040;-72
2022/11/16 08:38:35;;;;;;;5.20;0.90;;;;;;;;;;5031234;28;20533;-72
2022/11/16 08:41:01;;;;;;;16.88;1.02;;;;;;;;;;5039384;28;20044;-70
2022/11/16 08:43:28;;;;;;;3.33;1.05;;;;;;;;;;5033743;28;20448;-70
2022/11/16 08:45:54;;;;;;;4.63;0.93;;;;;;;;;;5037094;28;20405;-71
2022/11/16 08:48:21;;;;;;;3.30;1.05;;;;;;;;;;5031623;28;20049;-71
2022/11/16 08:50:46;;;;;;;5.00;0.90;;;;;;;;;;5042159;28;20052;-70
2022/11/16 08:53:14;;;;;;;5.75;0.90;;;;;;;;;;5035671;28;20256;-72
2022/11/16 08:55:41;;;;;;;1.95;0.80;;;;;;;;;;5038242;28;20055;-70
2022/11/16 08:58:08;;;;;;;10.48;2.35;;;;;;;;;;5032854;28;20110;-73
2022/11/16 09:00:34;;;;;;;4.72;0.77;;;;;;;;;;5035833;28;20648;-70
2022/11/16 09:03:00;;;;;;;4.22;0.80;;;;;;;;;;5030763;28;20041;-67
2022/11/16 09:05:26;;;;;;;3.72;1.10;;;;;;;;;;5035908;28;20052;-71
2022/11/16 09:07:52;;;;;;;3.58;0.90;;;;;;;;;;5033242;28;20462;-72
2022/11/16 09:10:21;;;;;;;5.25;1.20;;;;;;;;;;5038188;28;20526;-69
2022/11/16 09:12:49;;;;;;;5.22;1.13;;;;;;;;;;5036194;28;20583;-70
2022/11/16 09:15:15;;;;;;;4.03;0.90;;;;;;;;;;5035032;28;20059;-71
2022/11/16 09:17:41;;;;;;;4.75;0.90;;;;;;;;;;5034998;28;20465;-71
2022/11/16 09:20:07;;;;;;;3.55;1.08;;;;;;;;;;5032481;28;20408;-70
2022/11/16 09:22:33;;;;;;;7.68;1.33;;;;;;;;;;5032632;28;20126;-69
2022/11/16 09:24:59;;;;;;;3.05;0.93;;;;;;;;;;5038300;28;20486;-69
2022/11/16 09:27:25;;;;;;;5.15;0.70;;;;;;;;;;5032624;28;20037;-70
2022/11/16 09:29:51;;;;;;;5.38;1.20;;;;;;;;;;5035709;28;20562;-69
2022/11/16 09:32:17;;;;;;;4.50;1.02;;;;;;;;;;5031200;28;20045;-71
2022/11/16 09:34:43;;;;;;;4.68;1.00;;;;;;;;;;5033956;28;20053;-70
2022/11/16 09:37:09;;;;;;;3.65;1.35;;;;;;;;;;5037388;28;20052;-70
2022/11/16 09:39:34;;;;;;;4.45;1.10;;;;;;;;;;5032388;28;20673;-68
2022/11/16 09:42:22;;;;;;;3.92;1.13;;;;;;;;;;5034301;28;20573;-69
2022/11/16 09:45:05;;;;;;;5.90;1.30;;;;;;;;;;5036625;28;20078;-70
2022/11/16 09:47:43;;;;;;;7.38;1.23;;;;;;;;;;5034496;28;20072;-69
2022/11/16 09:50:29;;;;;;;12.02;1.00;;;;;;;;;;5018242;28;20449;-75
2022/11/16 09:53:01;;;;;;;7.07;1.20;;;;;;;;;;5033913;28;20052;-70
2022/11/16 09:55:57;;;;;;;4.93;1.13;;;;;;;;;;5041169;28;20083;-70
2022/11/16 09:58:27;;;;;;;5.90;0.90;;;;;;;;;;5013090;28;20064;-69
2022/11/16 10:01:03;;;;;;;3.78;0.82;;;;;;;;;;5031733;28;20493;-71
2022/11/16 10:03:34;;;;;;;4.75;0.90;;;;;;;;;;5036698;28;20060;-70
2022/11/16 10:06:22;;;;;;;5.18;0.85;;;;;;;;;;5034509;28;20473;-71
2022/11/16 10:08:50;;;;;;;3.13;1.05;;;;;;;;;;5030491;28;20069;-73
2022/11/16 10:11:44;;;;;;;4.47;1.05;;;;;;;;;;5036094;28;21875;-71
2022/11/16 10:14:13;;;;;;;3.83;1.25;;;;;;;;;;5031738;28;20315;-73
2022/11/16 10:16:47;;;;;;;4.75;1.30;;;;;;;;;;5034120;28;20061;-73
2022/11/16 10:19:22;;;;;;;3.60;1.00;;;;;;;;;;5034331;28;20504;-72
2022/11/16 10:22:00;;;;;;;7.47;1.05;;;;;;;;;;5039158;28;20127;-73
2022/11/16 10:24:42;;;;;;;4.82;1.08;;;;;;;;;;5035063;28;20052;-70
2022/11/16 10:27:33;;;;;;;3.70;1.20;;;;;;;;;;5033452;28;20072;-70
2022/11/16 10:30:20;;;;;;;3.15;0.80;;;;;;;;;;5035091;28;20065;-70
2022/11/16 10:32:52;;;;;;;3.55;1.00;;;;;;;;;;5038184;28;20045;-72
2022/11/16 10:35:29;;;;;;;13.20;1.25;;;;;;;;;;5036391;28;20080;-69
2022/11/16 10:37:58;;;;;;;2.38;0.73;;;;;;;;;;5034302;28;20378;-69
2022/11/16 10:40:37;;;;;;;10.18;1.38;;;;;;;;;;5038895;28;20056;-70
2022/11/16 10:43:17;;;;;;;5.88;1.20;;;;;;;;;;5038226;28;20136;-68
2022/11/16 10:45:56;;;;;;;5.80;1.08;;;;;;;;;;5036562;28;20049;-71
2022/11/16 10:48:28;;;;;;;6.50;1.10;;;;;;;;;;5034609;28;20081;-69
2022/11/16 10:50:55;;;;;;;5.60;0.98;;;;;;;;;;5038601;28;20052;-71
2022/11/16 10:53:38;;;;;;;3.22;1.27;;;;;;;;;;5037313;28;20295;-71
2022/11/16 10:56:30;;;;;;;3.47;1.05;;;;;;;;;;5038597;28;20056;-70
2022/11/16 10:59:04;;;;;;;3.88;1.23;;;;;;;;;;5033810;28;20139;-69
2022/11/16 11:01:42;;;;;;;2.88;1.15;;;;;;;;;;5036509;28;20044;-68
2022/11/16 11:04:24;;;;;;;8.85;1.02;;;;;;;;;;5039280;28;20055;-72
2022/11/16 11:06:54;;;;;;;7.45;1.20;;;;;;;;;;5040787;28;20053;-71
2022/11/16 11:09:30;;;;;;;5.03;0.80;;;;;;;;;;5035460;28;20655;-68
2022/11/16 11:15:11;;;;;;;3.13;0.98;;;;;;;;;;5033720;28;20128;-71
2022/11/16 11:17:42;;;;;;;2.45;0.90;;;;;;;;;;5013797;28;20058;-70
2022/11/16 11:20:14;;;;;;;3.38;0.90;;;;;;;;;;5038814;28;20130;-70
2022/11/16 11:23:11;;;;;;;5.22;1.00;;;;;;;;;;5036652;28;20057;-72
2022/11/16 11:25:48;;;;;;;8.02;1.17;;;;;;;;;;5040633;28;20422;-72
2022/11/16 11:28:17;;;;;;;6.85;1.10;;;;;;;;;;5036569;28;20049;-70
2022/11/16 11:31:21;;;;;;;4.85;1.05;;;;;;;;;;5035586;28;20049;-73
2022/11/16 11:33:50;;;;;;;5.70;0.88;;;;;;;;;;5039534;28;20782;-70
2022/11/16 11:36:24;;;;;;;1.58;0.95;;;;;;;;;;5037129;28;20114;-72
2022/11/16 11:39:24;;;;;;;3.65;0.88;;;;;;;;;;5033739;28;20087;-72
2022/11/16 11:42:04;;;;;;;7.35;1.10;;;;;;;;;;5034923;28;20175;-69
2022/11/16 11:44:48;;;;;;;5.70;1.08;;;;;;;;;;5039739;28;20053;-69
2022/11/16 11:47:23;;;;;;;5.38;1.23;;;;;;;;;;5035237;28;20044;-71
2022/11/16 11:49:54;;;;;;;10.20;1.48;;;;;;;;;;5042153;28;20072;-70
2022/11/16 11:52:29;;;;;;;6.97;1.08;;;;;;;;;;5036040;28;20055;-70
2022/11/16 11:54:55;;;;;;;3.72;0.85;;;;;;;;;;5039565;28;20049;-68
2022/11/16 11:57:22;;;;;;;5.55;0.90;;;;;;;;;;5039746;28;20468;-69
2022/11/16 11:59:51;;;;;;;5.28;1.08;;;;;;;;;;5033234;28;20048;-69
2022/11/16 12:02:17;;;;;;;2.45;0.82;;;;;;;;;;5041913;28;20052;-73
2022/11/16 12:05:00;;;;;;;6.00;1.13;;;;;;;;;;5034571;28;21584;-71
2022/11/16 12:07:32;;;;;;;4.50;0.80;;;;;;;;;;5036062;28;20054;-70
2022/11/16 12:09:58;;;;;;;4.35;0.80;;;;;;;;;;5034472;28;20053;-69
2022/11/16 12:12:39;;;;;;;6.85;0.90;;;;;;;;;;5034236;28;20398;-68
2022/11/16 12:15:24;;;;;;;3.78;0.80;;;;;;;;;;5034409;28;20077;-70
2022/11/16 12:17:50;;;;;;;7.78;1.27;;;;;;;;;;5037869;28;20752;-73
2022/11/16 12:20:35;;;;;;;3.20;0.85;;;;;;;;;;5041606;28;20087;-70
2022/11/16 12:23:52;;;;;;;5.70;0.85;;;;;;;;;;5017183;28;20415;-70
2022/11/16 12:26:49;;;;;;;2.60;0.80;;;;;;;;;;5005133;28;20060;-70
2022/11/16 12:29:36;;;;;;;8.65;1.00;;;;;;;;;;5032327;28;20673;-72
2022/11/16 12:32:26;;;;;;;3.45;1.00;;;;;;;;;;5038273;28;20052;-69
2022/11/16 12:35:23;;;;;;;9.30;1.45;;;;;;;;;;5031091;28;20127;-69
2022/11/16 12:38:25;;;;;;;8.25;1.02;;;;;;;;;;5026490;28;20060;-69
2022/11/16 12:40:57;;;;;;;5.88;1.10;;;;;;;;;;5013511;28;20056;-69
2022/11/16 12:43:29;;;;;;;2.28;0.75;;;;;;;;;;5034093;28;20063;-69
2022/11/16 12:46:15;;;;;;;5.32;0.88;;;;;;;;;;5035619;28;20045;-71
2022/11/16 12:49:26;;;;;;;1.08;0.60;;;;;;;;;;5034918;28;20056;-70
2022/11/16 12:52:10;;;;;;;2.58;0.70;;;;;;;;;;5038171;28;20087;-70
2022/11/16 12:54:42;;;;;;;;;;;;;;;;;;5030543;28;20053;-69
2022/11/16 12:57:46;;;;;;;4.57;0.90;;;;;;;;;;5036338;28;19924;-71
2022/11/16 13:00:16;;;;;;;6.43;1.10;;;;;;;;;;5038753;28;20053;-73
2022/11/16 13:03:17;;;;;;;1.80;0.90;;;;;;;;;;5015704;28;20099;-71
2022/11/16 13:06:02;;;;;;;5.90;0.98;;;;;;;;;;5037671;28;20048;-71
2022/11/16 13:08:39;;;;;;;4.47;1.20;;;;;;;;;;5030072;28;20629;-70
2022/11/16 13:11:26;;;;;;;6.35;1.20;;;;;;;;;;5027255;28;20054;-71
2022/11/16 13:13:58;;;;;;;5.68;1.00;;;;;;;;;;5034576;28;20048;-70
2022/11/16 13:16:25;;;;;;;9.82;0.80;;;;;;;;;;5036708;28;20053;-72
2022/11/16 13:18:53;;;;;;;6.00;1.17;;;;;;;;;;5033865;28;20064;-69
2022/11/16 13:21:22;;;;;;;7.82;1.65;;;;;;;;;;5035231;28;20506;-72
2022/11/16 13:24:06;;;;;;;5.93;1.15;;;;;;;;;;5037819;28;20109;-71
2022/11/16 13:26:35;;;;;;;;;;;;;;;;;;5033430;28;20049;-71
2022/11/16 13:29:19;;;;;;;2.85;0.90;;;;;;;;;;5036799;28;19929;-72
2022/11/16 13:31:54;;;;;;;2.70;1.00;;;;;;;;;;5032985;28;20505;-71
2022/11/16 13:34:31;;;;;;;5.97;1.02;;;;;;;;;;5039627;28;20052;-70
2022/11/16 13:36:57;;;;;;;4.57;1.20;;;;;;;;;;5038094;28;20095;-71
2022/11/16 13:39:57;;;;;;;6.15;1.02;;;;;;;;;;5036303;28;20061;-71
2022/11/16 13:42:25;;;;;;;6.47;1.15;;;;;;;;;;5040762;28;20437;-71
2022/11/16 13:44:52;;;;;;;5.53;0.80;;;;;;;;;;5037545;28;21169;-71
2022/11/16 13:47:24;;;;;;;5.32;1.25;;;;;;;;;;5017962;28;20064;-71
2022/11/16 13:49:53;;;;;;;3.10;0.98;;;;;;;;;;5032298;28;20431;-72
2022/11/16 13:52:19;;;;;;;7.72;1.23;;;;;;;;;;5034750;28;20430;-70
2022/11/16 13:54:58;;;;;;;2.38;1.00;;;;;;;;;;5038155;28;20044;-72
2022/11/16 13:57:24;;;;;;;5.55;0.93;;;;;;;;;;5035018;28;20094;-74
2022/11/16 14:00:00;;;;;;;2.45;0.85;;;;;;;;;;5014373;28;21064;-72
2022/11/16 14:02:40;;;;;;;5.15;0.90;;;;;;;;;;5035174;28;20870;-71
2022/11/16 14:05:12;;;;;;;4.80;1.17;;;;;;;;;;5032006;28;20058;-69
2022/11/16 14:07:51;;;;;;;5.18;0.90;;;;;;;;;;5043216;28;20086;-71
2022/11/16 14:10:32;;;;;;;6.43;0.90;;;;;;;;;;5037908;28;20559;-70
2022/11/16 14:13:03;;;;;;;4.00;0.88;;;;;;;;;;5033001;28;20052;-72
2022/11/16 14:15:34;;;;;;;3.78;0.90;;;;;;;;;;5038267;28;20490;-71
2022/11/16 14:18:07;;;;;;;8.32;1.55;;;;;;;;;;5036294;28;20063;-72
2022/11/16 14:20:54;;;;;;;6.22;1.23;;;;;;;;;;5028115;28;20056;-70
2022/11/16 14:23:37;;;;;;;3.08;1.00;;;;;;;;;;5035874;28;20642;-71
2022/11/16 14:26:37;;;;;;;5.95;0.90;;;;;;;;;;5035825;28;20108;-72
2022/11/16 14:29:35;;;;;;;7.05;0.95;;;;;;;;;;5034889;28;20051;-74
2022/11/16 14:32:03;;;;;;;3.55;1.10;;;;;;;;;;5037784;28;20118;-75
2022/11/16 14:34:45;;;;;;;8.68;0.80;;;;;;;;;;5037532;28;20777;-74
2022/11/16 14:37:33;;;;;;;7.50;1.10;;;;;;;;;;5039582;28;20057;-74
2022/11/16 14:40:17;;;;;;;4.60;1.02;;;;;;;;;;5038264;28;20044;-73
2022/11/16 14:42:56;;;;;;;14.85;1.13;;;;;;;;;;5031347;28;20045;-76
2022/11/16 14:45:28;;;;;;;8.25;0.90;;;;;;;;;;5040180;28;20048;-77
2022/11/16 14:48:04;;;;;;;2.67;0.95;;;;;;;;;;5042823;28;20177;-71
2022/11/16 14:50:31;;;;;;;3.22;0.80;;;;;;;;;;5039221;28;20045;-69
2022/11/16 14:53:02;;;;;;;1.85;0.90;;;;;;;;;;5039278;28;20136;-72
2022/11/16 14:55:28;;;;;;;5.60;1.10;;;;;;;;;;5017453;28;20057;-73
2022/11/16 14:58:26;;;;;;;4.10;0.90;;;;;;;;;;5033936;28;20053;-71
2022/11/16 15:00:58;;;;;;;4.25;0.82;;;;;;;;;;5032328;28;20117;-72
2022/11/16 15:03:27;;;;;;;6.38;0.90;;;;;;;;;;5037588;28;20061;-72
2022/11/16 15:05:57;;;;;;;7.68;1.00;;;;;;;;;;5036115;28;20540;-75
2022/11/16 15:08:30;;;;;;;2.97;1.00;;;;;;;;;;5032014;28;20067;-74
2022/11/16 15:10:57;;;;;;;1.35;0.68;;;;;;;;;;5039120;28;20045;-74
2022/11/16 15:13:24;;;;;;;3.40;0.90;;;;;;;;;;5038955;28;20560;-71
2022/11/16 15:16:16;;;;;;;3.92;0.90;;;;;;;;;;5043206;28;20075;-74
2022/11/16 15:18:58;;;;;;;4.07;1.05;;;;;;;;;;5033603;28;20564;-72
2022/11/16 15:21:25;;;;;;;3.45;1.08;;;;;;;;;;5042582;28;20467;-70
2022/11/16 15:23:51;;;;;;;3.10;0.80;;;;;;;;;;5038993;28;20123;-74
2022/11/16 15:26:21;;;;;;;8.48;1.00;;;;;;;;;;5037469;28;20060;-71
2022/11/16 15:28:49;;;;;;;1.42;0.90;;;;;;;;;;5036133;28;20055;-73
2022/11/16 15:31:15;;;;;;;4.63;1.00;;;;;;;;;;5040559;28;20068;-70
2022/11/16 15:33:43;;;;;;;1.52;0.65;;;;;;;;;;5035830;28;20048;-72
2022/11/16 15:36:31;;;;;;;4.45;0.82;;;;;;;;;;5039952;28;20074;-75
2022/11/16 15:38:59;;;;;;;6.72;0.90;;;;;;;;;;5019637;28;20036;-71
2022/11/16 15:41:28;;;;;;;2.83;0.85;;;;;;;;;;5047689;28;20072;-70
2022/11/16 15:43:59;;;;;;;9.63;1.25;;;;;;;;;;5032036;28;20084;-71
2022/11/16 15:46:32;;;;;;;8.75;1.25;;;;;;;;;;5047738;28;20486;-72
2022/11/16 15:48:58;;;;;;;10.00;1.20;;;;;;;;;;5042181;28;20417;-70
2022/11/16 15:51:26;;;;;;;8.35;1.48;;;;;;;;;;5053242;28;21011;-71
2022/11/16 15:53:54;;;;;;;2.28;1.00;;;;;;;;;;5037762;28;20675;-74
2022/11/16 15:56:26;;;;;;;7.38;1.67;;;;;;;;;;5039828;28;20060;-70